Time;durP1;ratioP1;P1;durP2;ratioP2;P2;SDS_P1;SDS_P2;PMS_P1;PMS_P2;Temp;Humidity;BMP_temperature;BMP_pressure;BME280_temperature;BME280_humidity;BME280_pressure;Samples;Min_cycle;Max_cycle;Signal;HPM_P1;HPM_P2
2022/07/26 00:01:26;;;;;;;11.88;3.55;;;19.70;99.90;;;;;;5046646;28;20038;-77
2022/07/26 00:03:53;;;;;;;8.60;3.00;;;19.60;99.90;;;;;;5031525;28;20083;-77
2022/07/26 00:06:19;;;;;;;10.95;3.28;;;19.60;99.90;;;;;;5029602;28;20483;-77
2022/07/26 00:08:45;;;;;;;14.65;3.65;;;19.60;99.90;;;;;;5029361;28;20032;-77
2022/07/26 00:11:11;;;;;;;11.88;3.60;;;19.60;99.90;;;;;;5048780;28;20112;-76
2022/07/26 00:13:37;;;;;;;12.80;3.45;;;19.60;99.90;;;;;;5045112;28;20557;-77
2022/07/26 00:16:03;;;;;;;7.22;3.00;;;19.50;99.90;;;;;;5026142;28;20090;-77
2022/07/26 00:18:29;;;;;;;7.20;3.00;;;19.50;99.90;;;;;;5031774;28;20124;-77
2022/07/26 00:20:55;;;;;;;7.72;2.90;;;19.50;99.90;;;;;;5029472;28;20104;-77
2022/07/26 00:23:20;;;;;;;14.27;3.28;;;19.50;99.90;;;;;;5047488;28;20036;-77
2022/07/26 00:25:46;;;;;;;9.13;3.60;;;19.50;99.90;;;;;;5028160;28;20055;-77
2022/07/26 00:28:12;;;;;;;7.25;2.42;;;19.50;99.90;;;;;;5011970;28;20079;-78
2022/07/26 00:30:38;;;;;;;7.28;2.80;;;19.50;99.90;;;;;;5028340;28;20424;-77
2022/07/26 00:33:05;;;;;;;6.95;2.58;;;19.50;99.90;;;;;;5029862;28;20036;-77
2022/07/26 00:35:31;;;;;;;13.98;2.75;;;19.50;99.90;;;;;;5047463;28;20531;-77
2022/07/26 00:37:57;;;;;;;6.55;2.28;;;19.50;99.90;;;;;;5012698;28;20120;-77
2022/07/26 00:40:23;;;;;;;6.90;2.83;;;19.40;99.90;;;;;;5029361;28;20036;-77
2022/07/26 00:42:49;;;;;;;5.22;2.38;;;19.40;99.90;;;;;;5028536;28;20025;-77
2022/07/26 00:45:15;;;;;;;7.50;2.42;;;19.50;99.90;;;;;;5033902;28;20039;-77
2022/07/26 00:47:41;;;;;;;5.82;2.70;;;19.40;99.90;;;;;;5046260;28;20037;-77
2022/07/26 00:50:10;;;;;;;6.70;2.70;;;19.40;99.90;;;;;;5029093;28;20034;-77
2022/07/26 00:52:36;;;;;;;6.85;2.97;;;19.40;99.90;;;;;;5045092;28;20032;-77
2022/07/26 00:55:03;;;;;;;5.50;2.33;;;19.40;99.90;;;;;;5028501;28;20029;-77
2022/07/26 00:57:29;;;;;;;6.43;2.30;;;19.40;99.90;;;;;;5048748;28;20512;-77
2022/07/26 00:59:55;;;;;;;10.00;2.97;;;19.40;99.90;;;;;;5034230;28;20032;-77
2022/07/26 01:02:21;;;;;;;6.05;2.30;;;19.40;99.90;;;;;;5049844;28;20025;-77
2022/07/26 01:04:47;;;;;;;9.95;3.30;;;19.40;99.90;;;;;;5012556;28;20040;-77
2022/07/26 01:07:13;;;;;;;6.47;2.38;;;19.40;99.90;;;;;;5032814;28;20056;-77
2022/07/26 01:09:39;;;;;;;7.72;2.67;;;19.30;99.90;;;;;;5049498;28;20029;-77
2022/07/26 01:12:05;;;;;;;8.68;2.92;;;19.30;99.90;;;;;;5032047;28;20031;-77
2022/07/26 01:14:31;;;;;;;6.85;2.47;;;19.30;99.90;;;;;;5037209;28;20078;-78
2022/07/26 01:16:57;;;;;;;10.55;2.97;;;19.30;99.90;;;;;;5057074;28;20025;-77
2022/07/26 01:19:23;;;;;;;7.88;3.08;;;19.30;99.90;;;;;;5035542;28;20047;-76
2022/07/26 01:21:50;;;;;;;9.63;2.95;;;19.20;99.90;;;;;;5049116;28;20319;-76
2022/07/26 01:24:16;;;;;;;6.90;2.78;;;19.20;99.90;;;;;;5047018;28;20040;-76
2022/07/26 01:26:45;;;;;;;10.30;2.80;;;19.20;99.90;;;;;;5035323;28;20037;-76
2022/07/26 01:29:11;;;;;;;7.25;2.58;;;19.20;99.90;;;;;;5048934;28;20082;-77
2022/07/26 01:31:36;;;;;;;7.65;2.60;;;19.10;99.90;;;;;;5049777;28;20412;-76
2022/07/26 01:34:02;;;;;;;8.43;2.50;;;19.10;99.90;;;;;;5049905;28;20382;-76
2022/07/26 01:36:28;;;;;;;8.98;2.20;;;19.10;99.90;;;;;;5044623;28;20034;-76
2022/07/26 01:38:54;;;;;;;6.97;2.70;;;19.10;99.90;;;;;;5032566;28;20024;-77
2022/07/26 01:41:19;;;;;;;7.47;2.20;;;19.00;99.90;;;;;;5050492;28;20508;-76
2022/07/26 01:43:45;;;;;;;9.35;2.53;;;19.00;99.90;;;;;;5032095;28;20033;-76
2022/07/26 01:46:12;;;;;;;9.10;2.42;;;19.00;99.90;;;;;;5032575;28;20052;-77
2022/07/26 01:48:38;;;;;;;7.13;2.53;;;18.90;99.90;;;;;;5031966;28;20108;-76
2022/07/26 01:51:04;;;;;;;10.70;2.47;;;18.90;99.90;;;;;;5030036;28;20568;-76
2022/07/26 01:53:29;;;;;;;9.20;2.90;;;18.90;99.90;;;;;;5048840;28;20124;-76
2022/07/26 01:55:55;;;;;;;9.15;2.78;;;18.90;99.90;;;;;;5050625;28;20108;-77
2022/07/26 01:58:21;;;;;;;9.75;2.63;;;18.90;99.90;;;;;;5049055;28;20501;-77
2022/07/26 02:00:47;;;;;;;7.00;2.40;;;18.90;99.90;;;;;;5049820;28;20503;-78
2022/07/26 02:03:13;;;;;;;10.20;3.50;;;18.90;99.90;;;;;;5049918;28;20094;-78
2022/07/26 02:05:39;;;;;;;12.70;3.00;;;18.90;99.90;;;;;;5031704;28;20028;-77
2022/07/26 02:08:04;;;;;;;7.20;3.00;;;18.90;99.90;;;;;;5030842;28;20044;-77
2022/07/26 02:13:16;;;;;;;8.32;3.17;;;18.90;99.90;;;;;;5045092;28;20496;-77
2022/07/26 02:15:41;;;;;;;7.65;2.55;;;18.90;99.90;;;;;;5014898;28;20037;-77
2022/07/26 02:18:07;;;;;;;12.13;2.75;;;18.90;99.90;;;;;;5032455;28;20381;-79
2022/07/26 02:20:33;;;;;;;9.00;2.88;;;18.90;99.90;;;;;;5051543;28;20090;-77
2022/07/26 02:23:03;;;;;;;8.30;3.08;;;18.80;99.90;;;;;;5034241;28;20033;-77
2022/07/26 02:25:29;;;;;;;11.63;2.75;;;18.80;99.90;;;;;;5051789;28;20029;-78
2022/07/26 02:27:55;;;;;;;7.93;2.92;;;18.80;99.90;;;;;;5035167;28;20040;-77
2022/07/26 02:30:21;;;;;;;8.82;2.80;;;18.80;99.90;;;;;;5051245;28;20679;-78
2022/07/26 02:32:46;;;;;;;10.05;2.80;;;18.80;99.90;;;;;;5035742;28;20112;-77
2022/07/26 02:35:12;;;;;;;8.35;3.15;;;18.80;99.90;;;;;;5051599;28;20037;-78
2022/07/26 02:37:39;;;;;;;8.88;2.70;;;18.80;99.90;;;;;;5036036;28;20032;-77
2022/07/26 02:40:06;;;;;;;11.68;3.10;;;18.70;99.90;;;;;;5054425;28;20435;-77
2022/07/26 02:42:31;;;;;;;9.30;2.53;;;18.70;99.90;;;;;;5058725;28;20033;-77
2022/07/26 02:44:57;;;;;;;8.50;2.72;;;18.70;99.90;;;;;;5040292;28;20040;-78
2022/07/26 02:47:23;;;;;;;7.35;2.65;;;18.70;99.90;;;;;;5060592;28;20056;-79
2022/07/26 02:49:48;;;;;;;13.82;3.20;;;18.70;99.90;;;;;;5054323;28;20096;-77
2022/07/26 02:52:14;;;;;;;9.43;2.58;;;18.70;99.90;;;;;;5033759;28;20029;-78
2022/07/26 02:54:40;;;;;;;14.15;3.92;;;18.70;99.90;;;;;;5032324;28;20457;-76
2022/07/26 02:57:05;;;;;;;11.52;3.28;;;18.70;99.90;;;;;;5030635;28;20091;-76
2022/07/26 02:59:31;;;;;;;10.95;3.10;;;18.70;99.90;;;;;;5029136;28;20033;-76
2022/07/26 03:01:57;;;;;;;9.85;2.97;;;18.70;99.90;;;;;;5031429;28;20057;-77
2022/07/26 03:04:24;;;;;;;10.63;2.85;;;18.70;99.90;;;;;;5007907;28;20524;-77
2022/07/26 03:06:50;;;;;;;9.15;2.88;;;18.70;99.90;;;;;;5014429;28;20056;-78
2022/07/26 03:09:16;;;;;;;7.95;2.90;;;18.70;99.90;;;;;;5046341;28;20017;-77
2022/07/26 03:11:41;;;;;;;10.85;2.65;;;18.70;99.90;;;;;;5031832;28;20054;-77
2022/07/26 03:14:07;;;;;;;14.13;3.08;;;18.80;99.90;;;;;;5047495;28;20021;-77
2022/07/26 03:16:33;;;;;;;9.38;3.30;;;18.80;99.90;;;;;;5046790;28;20090;-77
2022/07/26 03:19:00;;;;;;;13.10;3.80;;;18.80;99.90;;;;;;5031045;28;20025;-77
2022/07/26 03:21:26;;;;;;;7.68;2.72;;;18.80;99.90;;;;;;5029500;28;20436;-77
2022/07/26 03:23:52;;;;;;;10.02;2.63;;;18.80;99.90;;;;;;5013336;28;20021;-79
2022/07/26 03:26:19;;;;;;;12.60;2.85;;;18.80;99.90;;;;;;5047161;28;20108;-78
2022/07/26 03:28:45;;;;;;;10.95;2.40;;;18.80;99.90;;;;;;5046974;28;20032;-77
2022/07/26 03:31:11;;;;;;;10.13;2.90;;;18.80;99.90;;;;;;5047064;28;20476;-77
2022/07/26 03:33:40;;;;;;;10.98;2.63;;;18.80;99.90;;;;;;5043995;28;20120;-76
2022/07/26 03:36:09;;;;;;;12.90;3.05;;;18.80;99.90;;;;;;5047448;28;20058;-76
2022/07/26 03:38:35;;;;;;;9.43;2.88;;;18.70;99.90;;;;;;5026340;28;20033;-77
2022/07/26 03:41:01;;;;;;;11.27;2.67;;;18.70;99.90;;;;;;5046721;28;20118;-77
2022/07/26 03:43:27;;;;;;;8.27;2.63;;;18.70;99.90;;;;;;5029510;28;20040;-77
2022/07/26 03:45:52;;;;;;;10.43;2.65;;;18.70;99.90;;;;;;5031025;28;20423;-76
2022/07/26 03:48:18;;;;;;;10.60;3.08;;;18.70;99.90;;;;;;5047006;28;20028;-76
2022/07/26 03:50:44;;;;;;;9.52;2.83;;;18.70;99.90;;;;;;5033913;28;20036;-78
2022/07/26 03:53:09;;;;;;;11.65;2.97;;;18.70;99.90;;;;;;5048865;28;20071;-78
2022/07/26 03:58:20;;;;;;;11.32;2.22;;;18.70;99.90;;;;;;5044950;28;20090;-77
2022/07/26 04:00:45;;;;;;;6.32;2.05;;;18.90;99.90;;;;;;5047765;28;20028;-77
2022/07/26 04:03:11;;;;;;;5.93;1.90;;;19.30;99.90;;;;;;5028123;28;20171;-77
2022/07/26 04:05:38;;;;;;;12.95;4.32;;;19.40;99.90;;;;;;5049529;28;20121;-76
2022/07/26 04:08:04;;;;;;;14.45;3.10;;;19.30;99.90;;;;;;5029278;28;20481;-76
2022/07/26 04:10:30;;;;;;;11.23;3.10;;;19.10;99.90;;;;;;5029238;28;20056;-78
2022/07/26 04:12:56;;;;;;;13.07;2.95;;;19.10;99.90;;;;;;5030048;28;20059;-76
2022/07/26 04:15:21;;;;;;;13.27;3.58;;;19.00;99.90;;;;;;5050224;28;20397;-77
2022/07/26 04:17:47;;;;;;;10.25;3.08;;;19.00;99.90;;;;;;5045784;28;20534;-76
2022/07/26 04:20:13;;;;;;;13.02;2.80;;;18.90;99.90;;;;;;5048250;28;20033;-77
2022/07/26 04:22:40;;;;;;;12.70;3.13;;;18.90;99.90;;;;;;5045738;28;20033;-77
2022/07/26 04:25:07;;;;;;;13.60;3.15;;;18.90;99.90;;;;;;5027037;28;20456;-78
2022/07/26 04:27:34;;;;;;;8.00;3.10;;;18.90;99.90;;;;;;5025325;28;20592;-77
2022/07/26 04:30:00;;;;;;;13.38;3.13;;;19.00;99.90;;;;;;5047833;28;20033;-77
2022/07/26 04:32:26;;;;;;;12.10;2.88;;;18.90;99.90;;;;;;5032060;28;20417;-77
2022/07/26 04:34:53;;;;;;;12.65;3.25;;;18.90;99.90;;;;;;5031771;28;20065;-76
2022/07/26 04:37:18;;;;;;;11.68;3.20;;;18.90;99.90;;;;;;5048234;28;20131;-76
2022/07/26 04:39:44;;;;;;;13.25;2.95;;;18.90;99.90;;;;;;5033554;28;20135;-76
2022/07/26 04:42:10;;;;;;;13.20;3.05;;;18.90;99.90;;;;;;5050768;28;20029;-76
2022/07/26 04:44:37;;;;;;;10.45;2.78;;;18.90;99.90;;;;;;5034934;28;20044;-76
2022/07/26 04:47:03;;;;;;;19.55;3.40;;;19.00;99.90;;;;;;5053561;28;20436;-76
2022/07/26 04:49:29;;;;;;;12.40;2.83;;;19.00;99.90;;;;;;5033170;28;20504;-76
2022/07/26 04:51:54;;;;;;;9.23;3.05;;;19.00;99.90;;;;;;5038673;28;20107;-76
2022/07/26 04:54:21;;;;;;;10.70;2.97;;;19.00;99.90;;;;;;5048259;28;20021;-76
2022/07/26 04:56:48;;;;;;;12.85;3.53;;;19.00;99.90;;;;;;5054830;28;20029;-76
2022/07/26 04:59:14;;;;;;;14.68;3.42;;;19.00;99.90;;;;;;5042378;28;20068;-76
2022/07/26 05:01:40;;;;;;;10.55;3.33;;;19.00;99.90;;;;;;5031116;28;20033;-76
2022/07/26 05:04:06;;;;;;;11.77;3.55;;;19.00;99.90;;;;;;5033171;28;20025;-76
2022/07/26 05:06:31;;;;;;;17.45;4.43;;;19.00;99.90;;;;;;5031184;28;20039;-76
2022/07/26 05:08:58;;;;;;;12.82;3.42;;;19.00;99.90;;;;;;5031022;28;20051;-77
2022/07/26 05:11:24;;;;;;;11.93;3.45;;;19.00;99.90;;;;;;5048293;28;20025;-78
2022/07/26 05:13:49;;;;;;;15.65;3.78;;;19.00;99.90;;;;;;5033985;28;20024;-77
2022/07/26 05:16:15;;;;;;;11.77;3.53;;;19.10;99.90;;;;;;5013888;28;20029;-77
2022/07/26 05:18:41;;;;;;;24.58;5.30;;;19.00;99.90;;;;;;5034991;28;20116;-77
2022/07/26 05:21:07;;;;;;;8.55;2.95;;;18.90;99.90;;;;;;5038934;28;20039;-77
2022/07/26 05:23:32;;;;;;;6.75;1.90;;;18.80;99.90;;;;;;5054709;28;20799;-77
2022/07/26 05:25:58;;;;;;;7.82;1.90;;;18.60;99.90;;;;;;5047811;28;20033;-79
2022/07/26 05:28:24;;;;;;;7.32;2.20;;;18.50;99.90;;;;;;5048444;28;20027;-78
2022/07/26 05:30:50;;;;;;;8.00;2.15;;;18.40;99.90;;;;;;5030181;28;20310;-78
2022/07/26 05:33:16;;;;;;;4.80;2.15;;;18.30;99.90;;;;;;5050066;28;20035;-76
2022/07/26 05:35:41;;;;;;;7.00;2.10;;;18.10;99.90;;;;;;5013959;28;20033;-77
2022/07/26 05:38:07;;;;;;;4.85;2.08;;;18.10;99.90;;;;;;5050445;28;20033;-77
2022/07/26 05:40:32;;;;;;;5.85;2.50;;;18.00;99.90;;;;;;5033445;28;20029;-76
2022/07/26 05:42:58;;;;;;;4.85;2.08;;;18.00;99.90;;;;;;5012962;28;20025;-74
2022/07/26 05:45:24;;;;;;;4.03;2.08;;;18.00;99.90;;;;;;5029865;28;20032;-75
2022/07/26 05:47:51;;;;;;;4.68;2.10;;;18.00;99.90;;;;;;5050194;28;20025;-74
2022/07/26 05:50:17;;;;;;;7.68;2.28;;;18.00;99.90;;;;;;5046638;28;20025;-74
2022/07/26 05:52:42;;;;;;;4.35;2.20;;;18.00;99.90;;;;;;5034979;28;20017;-75
2022/07/26 05:55:09;;;;;;;5.15;1.98;;;18.00;99.90;;;;;;5030120;28;20032;-75
2022/07/26 05:57:34;;;;;;;5.03;2.40;;;18.00;99.90;;;;;;5052333;28;20021;-75
2022/07/26 06:00:00;;;;;;;5.53;2.58;;;18.10;99.90;;;;;;5050770;28;20060;-75
2022/07/26 06:02:45;;;;;;;7.50;2.35;;;18.10;99.90;;;;;;5050838;28;20447;-74
2022/07/26 06:05:10;;;;;;;9.32;3.05;;;18.10;99.90;;;;;;5048000;28;20025;-73
2022/07/26 06:07:36;;;;;;;5.40;2.50;;;18.10;99.90;;;;;;5029121;28;20625;-74
2022/07/26 06:10:02;;;;;;;5.07;2.30;;;18.20;99.90;;;;;;5028160;28;20032;-74
2022/07/26 06:12:28;;;;;;;4.35;2.45;;;18.20;99.90;;;;;;5051236;28;20451;-74
2022/07/26 06:14:54;;;;;;;5.45;2.65;;;18.20;99.90;;;;;;5047936;28;20029;-74
2022/07/26 06:17:19;;;;;;;9.13;2.85;;;18.20;99.90;;;;;;5046108;28;20086;-74
2022/07/26 06:19:46;;;;;;;8.77;3.17;;;18.30;99.90;;;;;;5029346;28;20400;-74
2022/07/26 06:22:12;;;;;;;6.38;2.92;;;18.40;99.90;;;;;;5047346;28;20041;-74
2022/07/26 06:24:37;;;;;;;10.23;3.20;;;18.40;99.90;;;;;;5047036;28;20031;-75
2022/07/26 06:27:03;;;;;;;6.20;2.63;;;18.30;99.90;;;;;;5046509;28;20116;-74
2022/07/26 06:29:29;;;;;;;7.65;2.58;;;18.30;99.90;;;;;;5030733;28;20041;-75
2022/07/26 06:31:55;;;;;;;5.15;2.67;;;18.30;99.90;;;;;;5047516;28;20025;-75
2022/07/26 06:34:20;;;;;;;8.93;2.80;;;18.30;99.90;;;;;;5030110;28;20071;-74
2022/07/26 06:36:46;;;;;;;5.68;2.35;;;18.30;99.90;;;;;;5032446;28;20049;-74
2022/07/26 06:39:12;;;;;;;7.70;2.42;;;18.30;99.90;;;;;;5032129;28;20671;-74
2022/07/26 06:41:38;;;;;;;10.30;2.70;;;18.40;99.90;;;;;;5047211;28;20029;-74
2022/07/26 06:44:03;;;;;;;6.68;2.30;;;18.40;99.90;;;;;;5048744;28;20044;-75
2022/07/26 06:46:29;;;;;;;10.07;2.42;;;18.50;99.90;;;;;;5047292;28;20149;-76
2022/07/26 06:48:55;;;;;;;10.25;2.40;;;18.60;99.90;;;;;;5051753;28;20074;-80
2022/07/26 06:51:22;;;;;;;6.38;2.20;;;18.60;99.90;;;;;;5049899;28;20033;-74
2022/07/26 06:53:48;;;;;;;9.48;1.98;;;18.70;99.90;;;;;;5044147;28;20071;-74
2022/07/26 06:56:16;;;;;;;7.55;1.75;;;18.80;99.90;;;;;;5046316;28;20037;-76
2022/07/26 06:58:42;;;;;;;7.35;2.20;;;18.80;99.90;;;;;;5029730;28;20033;-77
2022/07/26 07:01:08;;;;;;;5.13;1.83;;;18.70;99.90;;;;;;5043802;28;20102;-77
2022/07/26 07:03:33;;;;;;;4.30;1.15;;;18.60;99.90;;;;;;5028867;28;20136;-77
2022/07/26 07:05:59;;;;;;;3.83;1.10;;;18.40;99.90;;;;;;5047367;28;20040;-77
2022/07/26 07:08:25;;;;;;;3.30;0.80;;;18.30;99.90;;;;;;5030896;28;20087;-75
2022/07/26 07:10:52;;;;;;;5.00;1.13;;;18.30;99.90;;;;;;5043673;28;20033;-75
2022/07/26 07:13:18;;;;;;;5.07;1.00;;;18.20;99.90;;;;;;5023660;28;20029;-75
2022/07/26 07:15:44;;;;;;;5.75;1.48;;;18.20;99.90;;;;;;5044055;28;20116;-75
2022/07/26 07:18:10;;;;;;;6.15;1.40;;;18.30;99.90;;;;;;5046422;28;20104;-75
2022/07/26 07:20:38;;;;;;;4.38;1.13;;;18.20;99.90;;;;;;5024275;28;20037;-75
2022/07/26 07:23:03;;;;;;;4.95;1.02;;;18.30;99.90;;;;;;5044485;28;20420;-75
2022/07/26 07:25:29;;;;;;;5.75;1.10;;;18.40;99.90;;;;;;5047321;28;20036;-77
2022/07/26 07:27:55;;;;;;;3.97;0.98;;;18.40;99.90;;;;;;5050496;28;20032;-77
2022/07/26 07:30:20;;;;;;;5.05;1.35;;;18.40;99.90;;;;;;5028914;28;20119;-76
2022/07/26 07:32:46;;;;;;;4.75;1.10;;;18.30;99.90;;;;;;5014060;28;20032;-77
2022/07/26 07:35:14;;;;;;;4.00;1.17;;;18.40;99.90;;;;;;5008585;28;20043;-73
2022/07/26 07:37:40;;;;;;;4.20;1.10;;;18.50;99.90;;;;;;5042086;28;20112;-78
2022/07/26 07:40:07;;;;;;;4.07;1.35;;;18.50;99.90;;;;;;5034460;28;20289;-77
2022/07/26 07:42:33;;;;;;;3.10;1.08;;;18.30;99.90;;;;;;5027064;28;20082;-77
2022/07/26 07:44:58;;;;;;;4.35;0.90;;;18.20;99.90;;;;;;5047520;28;20021;-77
2022/07/26 07:47:24;;;;;;;5.63;0.90;;;18.10;99.90;;;;;;5050587;28;20031;-77
2022/07/26 07:49:50;;;;;;;4.82;1.02;;;18.10;99.90;;;;;;5047483;28;20028;-77
2022/07/26 07:52:15;;;;;;;3.42;0.90;;;18.20;99.90;;;;;;5049710;28;20447;-76
2022/07/26 07:54:41;;;;;;;4.35;0.90;;;18.20;99.90;;;;;;5050097;28;20032;-77
2022/07/26 07:57:07;;;;;;;4.55;0.90;;;18.30;99.90;;;;;;5030780;28;20516;-77
2022/07/26 07:59:32;;;;;;;4.90;1.35;;;18.40;99.90;;;;;;5031438;28;20091;-77
2022/07/26 08:01:58;;;;;;;4.18;1.05;;;18.40;99.90;;;;;;5055010;28;20041;-77
2022/07/26 08:04:24;;;;;;;5.75;1.00;;;18.40;99.90;;;;;;5033267;28;20083;-76
2022/07/26 08:06:50;;;;;;;8.57;1.30;;;18.40;99.90;;;;;;5014832;28;20025;-77
2022/07/26 08:09:16;;;;;;;2.22;0.75;;;18.60;99.90;;;;;;5036462;28;20052;-77
2022/07/26 08:11:41;;;;;;;6.88;1.50;;;18.60;99.90;;;;;;5053350;28;20021;-77
2022/07/26 08:14:07;;;;;;;10.15;1.60;;;18.50;99.90;;;;;;5034784;28;20036;-77
2022/07/26 08:16:33;;;;;;;4.80;1.50;;;18.50;99.90;;;;;;5035641;28;20555;-77
2022/07/26 08:18:58;;;;;;;5.70;1.45;;;18.50;99.90;;;;;;5054381;28;20036;-77
2022/07/26 08:21:25;;;;;;;3.22;1.23;;;18.40;99.90;;;;;;5053674;28;20044;-77
2022/07/26 08:23:54;;;;;;;4.68;1.13;;;18.40;99.90;;;;;;5057109;28;20053;-76
2022/07/26 08:26:19;;;;;;;4.50;0.80;;;18.40;99.90;;;;;;5035447;28;20036;-76
2022/07/26 08:28:45;;;;;;;6.63;1.40;;;18.50;99.90;;;;;;5035646;28;20028;-76
2022/07/26 08:31:12;;;;;;;5.95;1.42;;;18.60;99.90;;;;;;5038847;28;20440;-76
2022/07/26 08:33:37;;;;;;;2.83;0.85;;;18.70;99.90;;;;;;5032929;28;20029;-76
2022/07/26 08:36:03;;;;;;;4.75;1.10;;;18.80;99.90;;;;;;5018069;28;20595;-76
2022/07/26 08:38:29;;;;;;;5.38;1.33;;;18.90;99.90;;;;;;5032530;28;20112;-76
2022/07/26 08:40:55;;;;;;;6.15;1.17;;;19.10;99.90;;;;;;5051233;28;20102;-76
2022/07/26 08:43:21;;;;;;;4.07;1.10;;;19.20;99.90;;;;;;5048032;28;20115;-76
2022/07/26 08:45:48;;;;;;;4.25;1.08;;;19.20;99.90;;;;;;5036792;28;20021;-76
2022/07/26 08:48:14;;;;;;;5.95;1.83;;;19.30;99.90;;;;;;5055387;28;20029;-76
2022/07/26 08:50:40;;;;;;;5.32;1.10;;;19.30;99.90;;;;;;5056645;28;20027;-76
2022/07/26 08:53:08;;;;;;;6.53;1.60;;;19.20;99.90;;;;;;5025819;28;20029;-76
2022/07/26 08:55:35;;;;;;;6.03;1.42;;;19.10;99.90;;;;;;5062176;28;20033;-76
2022/07/26 08:58:02;;;;;;;2.85;0.80;;;19.20;99.90;;;;;;5043296;28;20033;-76
2022/07/26 09:00:29;;;;;;;3.70;0.75;;;19.20;99.90;;;;;;5051487;28;20032;-76
2022/07/26 09:02:57;;;;;;;7.15;0.82;;;19.10;99.90;;;;;;5053795;28;20112;-76
2022/07/26 09:05:31;;;;;;;3.75;0.70;;;19.00;99.90;;;;;;5055322;28;20036;-76
2022/07/26 09:07:58;;;;;;;3.85;1.00;;;18.80;99.90;;;;;;5035230;28;20540;-77
2022/07/26 09:10:25;;;;;;;4.55;0.88;;;18.60;99.90;;;;;;5018682;28;20029;-77
2022/07/26 09:12:55;;;;;;;4.45;1.02;;;18.50;99.90;;;;;;5052694;28;20024;-77
2022/07/26 09:15:24;;;;;;;4.85;0.80;;;18.40;99.90;;;;;;5033877;28;20025;-77
2022/07/26 09:17:55;;;;;;;5.30;1.13;;;18.40;99.90;;;;;;5052285;28;20100;-78
2022/07/26 09:20:27;;;;;;;4.43;0.90;;;18.50;99.90;;;;;;5019038;28;20511;-76
2022/07/26 09:23:02;;;;;;;3.92;1.38;;;18.60;99.90;;;;;;5034976;28;20397;-76
2022/07/26 09:25:31;;;;;;;5.13;0.80;;;18.60;99.90;;;;;;5034667;28;20033;-76
2022/07/26 09:27:58;;;;;;;4.28;1.10;;;18.60;99.90;;;;;;5051169;28;20103;-76
2022/07/26 09:30:25;;;;;;;2.75;0.80;;;18.60;99.90;;;;;;5049338;28;20029;-77
2022/07/26 09:33:01;;;;;;;5.78;1.15;;;18.60;99.90;;;;;;5037311;28;20429;-78
2022/07/26 09:35:30;;;;;;;4.05;0.73;;;18.70;99.90;;;;;;5057659;28;20046;-77
2022/07/26 09:37:55;;;;;;;4.40;0.70;;;18.70;99.90;;;;;;5056450;28;20391;-78
2022/07/26 09:40:22;;;;;;;4.45;0.85;;;18.90;99.90;;;;;;5057345;28;20105;-76
2022/07/26 09:42:57;;;;;;;4.70;1.38;;;19.20;99.90;;;;;;5034936;28;20104;-76
2022/07/26 09:45:24;;;;;;;1.85;0.50;;;19.30;99.90;;;;;;5018762;28;20021;-76
2022/07/26 09:47:50;;;;;;;3.92;0.75;;;19.30;99.90;;;;;;5033007;28;20017;-77
2022/07/26 09:50:23;;;;;;;3.10;1.25;;;19.20;99.90;;;;;;5034565;28;20464;-76
2022/07/26 09:53:07;;;;;;;4.20;0.85;;;19.30;99.90;;;;;;5052202;28;20029;-75
2022/07/26 09:55:54;;;;;;;3.22;0.80;;;19.30;99.90;;;;;;5048553;28;20440;-76
2022/07/26 09:58:21;;;;;;;1.75;0.65;;;19.50;99.90;;;;;;5015109;28;20029;-77
2022/07/26 10:00:47;;;;;;;4.38;0.70;;;19.40;99.90;;;;;;5037805;28;20017;-78
2022/07/26 10:03:13;;;;;;;3.97;0.77;;;19.40;99.90;;;;;;5034562;28;20029;-77
2022/07/26 10:05:40;;;;;;;3.35;1.00;;;19.20;99.90;;;;;;5038789;28;20031;-77
2022/07/26 10:08:07;;;;;;;5.40;0.98;;;19.10;99.90;;;;;;5055481;28;20029;-77
2022/07/26 10:10:41;;;;;;;5.03;0.88;;;19.10;99.90;;;;;;5039887;28;20028;-78
2022/07/26 10:13:09;;;;;;;6.72;1.20;;;19.10;99.90;;;;;;5020183;28;20044;-78
2022/07/26 10:15:36;;;;;;;6.03;0.90;;;19.30;99.90;;;;;;5038000;28;20033;-78
2022/07/26 10:18:03;;;;;;;4.53;1.55;;;19.50;99.90;;;;;;5055965;28;20091;-78
2022/07/26 10:20:44;;;;;;;7.00;1.35;;;19.80;99.90;;;;;;5038621;28;20035;-78
2022/07/26 10:23:29;;;;;;;;;;;19.90;99.90;;;;;;5037046;28;20035;-77
2022/07/26 10:25:55;;;;;;;5.43;0.80;;;19.80;99.90;;;;;;5053809;28;19927;-77
2022/07/26 10:28:26;;;;;;;5.57;1.00;;;19.80;99.90;;;;;;5032978;28;20401;-77
2022/07/26 10:31:12;;;;;;;5.50;1.10;;;19.70;99.90;;;;;;5031923;28;20055;-77
2022/07/26 10:33:45;;;;;;;3.65;0.75;;;19.80;99.90;;;;;;5052891;28;20021;-79
2022/07/26 10:36:22;;;;;;;4.13;1.00;;;19.70;99.90;;;;;;5055322;28;20090;-77
2022/07/26 10:39:03;;;;;;;3.97;1.02;;;19.60;99.90;;;;;;5051448;28;20408;-78
2022/07/26 10:41:39;;;;;;;6.25;0.85;;;19.60;99.90;;;;;;5032917;28;20036;-78
2022/07/26 10:44:11;;;;;;;7.75;1.02;;;19.50;99.90;;;;;;5049187;28;20033;-76
2022/07/26 10:47:02;;;;;;;2.83;0.63;;;19.60;99.90;;;;;;5016651;28;20036;-78
2022/07/26 10:49:29;;;;;;;5.10;1.55;;;19.80;99.90;;;;;;5051846;28;20044;-77
2022/07/26 10:52:08;;;;;;;5.82;1.45;;;20.10;99.90;;;;;;5031591;28;20031;-78
2022/07/26 10:55:10;;;;;;;5.07;0.93;;;20.10;99.90;;;;;;5032454;28;20033;-76
2022/07/26 10:57:41;;;;;;;5.03;0.90;;;19.90;99.40;;;;;;4989623;28;20454;-77
2022/07/26 11:00:08;;;;;;;2.63;0.90;;;19.90;99.70;;;;;;5022898;28;20613;-77
2022/07/26 11:02:34;;;;;;;7.80;1.00;;;20.10;99.90;;;;;;5032309;28;20037;-75
2022/07/26 11:05:11;;;;;;;5.32;1.10;;;20.30;99.90;;;;;;5016346;28;20095;-75
2022/07/26 11:07:50;;;;;;;5.72;1.15;;;20.50;98.80;;;;;;5031754;28;20064;-76
2022/07/26 11:10:20;;;;;;;5.10;1.05;;;20.60;98.70;;;;;;5049617;28;20115;-77
2022/07/26 11:12:46;;;;;;;9.75;1.63;;;20.40;98.70;;;;;;5049534;28;20037;-76
2022/07/26 11:15:18;;;;;;;4.25;1.33;;;20.20;99.00;;;;;;5052821;28;20789;-77
2022/07/26 11:17:44;;;;;;;4.50;1.05;;;20.00;99.50;;;;;;5052672;28;20029;-77
2022/07/26 11:20:10;;;;;;;8.13;1.60;;;19.90;98.00;;;;;;5035741;28;20078;-78
2022/07/26 11:22:36;;;;;;;4.32;1.30;;;19.80;99.20;;;;;;5057279;28;20028;-77
2022/07/26 11:25:03;;;;;;;6.50;1.88;;;20.20;97.50;;;;;;5031424;28;20032;-75
2022/07/26 11:27:29;;;;;;;4.13;1.50;;;21.20;96.30;;;;;;5030385;28;20033;-77
2022/07/26 11:30:01;;;;;;;6.43;1.27;;;22.80;94.50;;;;;;5048956;28;20100;-77
2022/07/26 11:32:27;;;;;;;5.53;1.58;;;23.70;91.40;;;;;;5033238;28;20025;-79
2022/07/26 11:35:03;;;;;;;3.63;1.25;;;24.40;88.30;;;;;;5054076;28;20032;-78
2022/07/26 11:37:29;;;;;;;4.68;1.38;;;25.30;88.00;;;;;;5053310;28;20029;-80
2022/07/26 11:39:55;;;;;;;4.00;1.30;;;25.50;84.00;;;;;;5019205;28;20021;-79
2022/07/26 11:42:21;;;;;;;5.90;1.42;;;25.90;80.80;;;;;;5033306;28;20458;-78
2022/07/26 11:44:48;;;;;;;7.57;1.40;;;25.70;74.40;;;;;;5036152;28;20024;-80
2022/07/26 11:47:20;;;;;;;6.25;1.52;;;24.80;73.60;;;;;;5055255;28;20112;-80
2022/07/26 11:49:47;;;;;;;8.50;1.60;;;23.90;75.90;;;;;;5034754;28;21315;-79
2022/07/26 11:52:13;;;;;;;6.43;1.60;;;22.90;79.80;;;;;;5035454;28;20021;-80
2022/07/26 11:54:48;;;;;;;6.70;1.58;;;22.30;83.40;;;;;;5051757;28;20021;-79
2022/07/26 11:57:14;;;;;;;3.95;1.40;;;22.70;85.00;;;;;;5051215;28;20110;-79
2022/07/26 11:59:42;;;;;;;6.47;1.70;;;23.60;77.40;;;;;;5035682;28;20029;-79
2022/07/26 12:02:08;;;;;;;7.13;1.67;;;23.30;76.70;;;;;;5054383;28;20033;-80
2022/07/26 12:04:40;;;;;;;6.53;1.75;;;23.10;78.10;;;;;;5036433;28;20028;-79
2022/07/26 12:07:12;;;;;;;8.10;1.38;;;23.00;77.50;;;;;;5019851;28;20123;-79
2022/07/26 12:09:40;;;;;;;5.45;1.55;;;23.40;78.70;;;;;;5039152;28;20029;-80
2022/07/26 12:12:18;;;;;;;8.55;1.98;;;23.80;76.30;;;;;;5021829;28;20028;-78
2022/07/26 12:14:58;;;;;;;7.57;1.98;;;24.30;74.00;;;;;;5051967;28;20025;-78
2022/07/26 12:17:25;;;;;;;4.47;1.50;;;24.00;73.30;;;;;;5051920;28;20040;-78
2022/07/26 12:19:51;;;;;;;8.15;2.00;;;23.90;73.90;;;;;;5053158;28;20029;-79
2022/07/26 12:22:18;;;;;;;6.72;2.08;;;24.30;69.30;;;;;;5017010;28;20268;-79
2022/07/26 12:24:50;;;;;;;6.18;1.42;;;24.10;67.30;;;;;;5055358;28;20028;-79
2022/07/26 12:27:44;;;;;;;6.40;1.40;;;23.70;67.40;;;;;;5042612;28;20032;-79
2022/07/26 12:30:10;;;;;;;5.85;1.27;;;23.50;72.40;;;;;;5025513;28;20087;-79
2022/07/26 12:32:38;;;;;;;6.60;1.48;;;23.90;69.50;;;;;;5032096;28;20459;-78
2022/07/26 12:35:10;;;;;;;4.82;1.27;;;24.60;66.70;;;;;;5048188;28;20131;-81
2022/07/26 12:37:44;;;;;;;3.95;1.10;;;25.40;64.10;;;;;;5044295;28;20029;-79
2022/07/26 12:40:18;;;;;;;6.50;1.35;;;25.30;63.70;;;;;;5030181;28;20032;-79
2022/07/26 12:42:55;;;;;;;7.88;1.52;;;25.40;63.30;;;;;;5032982;28;20040;-77
2022/07/26 12:45:24;;;;;;;7.70;1.52;;;26.00;62.20;;;;;;5030500;28;20052;-81
2022/07/26 12:47:51;;;;;;;7.53;1.60;;;26.80;58.40;;;;;;5047988;28;20021;-80
2022/07/26 12:50:20;;;;;;;8.98;1.75;;;26.60;61.50;;;;;;5020968;28;20090;-80
2022/07/26 12:52:46;;;;;;;8.63;1.50;;;27.10;58.50;;;;;;5055027;28;20033;-81